Time;durP1;ratioP1;P1;durP2;ratioP2;P2;SDS_P1;SDS_P2;PMS_P1;PMS_P2;Temp;Humidity;BMP_temperature;BMP_pressure;BME280_temperature;BME280_humidity;BME280_pressure;Samples;Min_cycle;Max_cycle;Signal;HPM_P1;HPM_P2
2021/04/17 00:00:28;;;;;;;16.38;7.00;;;6.60;99.90;;;;;;5068174;28;20063;-59
2021/04/17 00:02:53;;;;;;;13.05;7.03;;;6.80;99.90;;;;;;5065146;28;20480;-59
2021/04/17 00:05:19;;;;;;;12.52;8.50;;;6.90;99.90;;;;;;5065273;28;20025;-59
2021/04/17 00:07:45;;;;;;;15.43;7.68;;;7.00;99.90;;;;;;5067749;28;20025;-60
2021/04/17 00:10:12;;;;;;;13.25;7.00;;;7.10;99.90;;;;;;5066171;28;20099;-60
2021/04/17 00:12:37;;;;;;;15.57;6.70;;;7.20;99.90;;;;;;5068252;28;20028;-59
2021/04/17 00:15:03;;;;;;;15.15;7.30;;;7.30;99.90;;;;;;5061370;28;20043;-60
2021/04/17 00:17:29;;;;;;;14.15;7.60;;;7.30;99.90;;;;;;5067308;28;20115;-59
2021/04/17 00:19:55;;;;;;;13.35;7.45;;;7.30;99.90;;;;;;5067541;28;20128;-59
2021/04/17 00:22:21;;;;;;;13.25;7.30;;;7.10;99.90;;;;;;5069314;28;20066;-59
2021/04/17 00:24:47;;;;;;;17.60;7.25;;;7.00;99.90;;;;;;5066131;28;20021;-61
2021/04/17 00:27:13;;;;;;;12.68;6.88;;;6.90;99.90;;;;;;5060875;28;20109;-58
2021/04/17 00:29:38;;;;;;;17.23;8.07;;;6.70;99.90;;;;;;5068084;28;20028;-56
2021/04/17 00:32:07;;;;;;;16.58;7.57;;;6.50;99.90;;;;;;5064287;28;20024;-58
2021/04/17 00:34:33;;;;;;;10.95;7.60;;;6.40;99.90;;;;;;5061582;28;20096;-58
2021/04/17 00:36:58;;;;;;;17.77;8.15;;;6.30;99.90;;;;;;5069119;28;20080;-58
2021/04/17 00:39:24;;;;;;;15.05;7.40;;;6.20;99.90;;;;;;5070986;28;20021;-58
2021/04/17 00:41:50;;;;;;;11.02;6.88;;;6.10;99.90;;;;;;5064482;28;20063;-58
2021/04/17 00:44:16;;;;;;;12.98;7.80;;;6.00;99.90;;;;;;5062318;28;20578;-58
2021/04/17 00:46:41;;;;;;;11.68;7.13;;;5.90;99.90;;;;;;5066189;28;20039;-56
2021/04/17 00:49:09;;;;;;;16.60;8.15;;;5.90;99.90;;;;;;5062080;28;20033;-56
2021/04/17 00:51:36;;;;;;;14.25;8.13;;;5.80;99.90;;;;;;5064428;28;20017;-56
2021/04/17 00:54:02;;;;;;;16.10;8.77;;;5.70;99.90;;;;;;5060500;28;20029;-56
2021/04/17 00:56:28;;;;;;;15.90;8.98;;;5.70;99.90;;;;;;5069680;28;20028;-55
2021/04/17 00:58:53;;;;;;;15.75;8.23;;;5.60;99.90;;;;;;5068286;28;20505;-57
2021/04/17 01:01:20;;;;;;;11.07;8.10;;;5.60;99.90;;;;;;5064194;28;20024;-58
2021/04/17 01:03:55;;;;;;;18.05;9.48;;;5.70;99.90;;;;;;5064773;28;20551;-58
2021/04/17 01:06:52;;;;;;;17.23;9.38;;;5.60;99.90;;;;;;5069365;28;20052;-58
2021/04/17 01:09:38;;;;;;;17.20;8.00;;;5.60;99.90;;;;;;5066638;28;20049;-60
2021/04/17 01:12:14;;;;;;;15.57;8.60;;;5.50;99.90;;;;;;5065023;28;20082;-60
2021/04/17 01:14:42;;;;;;;17.98;8.52;;;5.50;99.90;;;;;;5066816;28;20020;-58
2021/04/17 01:17:07;;;;;;;15.77;7.97;;;5.40;99.90;;;;;;5066167;28;20058;-59
2021/04/17 01:19:55;;;;;;;15.45;8.27;;;5.40;99.90;;;;;;5066040;28;20521;-58
2021/04/17 01:22:24;;;;;;;13.00;7.43;;;5.40;99.90;;;;;;5062258;28;20025;-61
2021/04/17 01:25:02;;;;;;;15.93;8.70;;;5.50;99.90;;;;;;5066587;28;20494;-56
2021/04/17 01:27:28;;;;;;;15.60;7.95;;;5.50;99.90;;;;;;5070441;28;20394;-59
2021/04/17 01:29:54;;;;;;;16.70;8.00;;;5.40;99.90;;;;;;5069255;28;20041;-58
2021/04/17 01:32:20;;;;;;;16.20;8.30;;;5.40;99.90;;;;;;5070412;28;20032;-57
2021/04/17 01:34:47;;;;;;;14.73;9.18;;;5.30;99.90;;;;;;5070018;28;20040;-60
2021/04/17 01:37:13;;;;;;;15.50;9.15;;;5.20;99.90;;;;;;5070253;28;20032;-57
2021/04/17 01:39:40;;;;;;;17.45;9.00;;;5.10;99.90;;;;;;5067297;28;20040;-55
2021/04/17 01:42:09;;;;;;;15.65;8.88;;;5.00;99.90;;;;;;5066969;28;20036;-57
2021/04/17 01:44:41;;;;;;;14.45;8.57;;;4.90;99.90;;;;;;5067413;28;20036;-56
2021/04/17 01:47:10;;;;;;;12.88;7.57;;;4.80;99.90;;;;;;5068665;28;20024;-58
2021/04/17 01:49:39;;;;;;;17.73;9.82;;;4.70;99.90;;;;;;5068383;28;20021;-59
2021/04/17 01:52:07;;;;;;;19.17;8.98;;;4.70;99.90;;;;;;5064670;28;20028;-59
2021/04/17 01:54:42;;;;;;;18.15;9.30;;;4.70;99.90;;;;;;5063810;28;20539;-58
2021/04/17 01:57:09;;;;;;;13.50;8.65;;;4.60;99.90;;;;;;5068835;28;20024;-59
2021/04/17 01:59:36;;;;;;;15.65;7.85;;;4.70;99.90;;;;;;5066038;28;20028;-58
2021/04/17 02:02:02;;;;;;;19.98;9.93;;;4.70;99.90;;;;;;5065508;28;20458;-58
2021/04/17 02:04:28;;;;;;;20.33;9.40;;;4.70;99.90;;;;;;5070003;28;20025;-60
2021/04/17 02:06:54;;;;;;;16.73;9.40;;;4.60;99.90;;;;;;5069742;28;20108;-60
2021/04/17 02:09:19;;;;;;;15.10;8.60;;;4.60;99.90;;;;;;5073772;28;20543;-58
2021/04/17 02:11:45;;;;;;;18.05;8.57;;;4.50;99.90;;;;;;5073102;28;20508;-58
2021/04/17 02:14:10;;;;;;;17.98;9.35;;;4.40;99.90;;;;;;5070585;28;20119;-59
2021/04/17 02:16:43;;;;;;;18.70;9.00;;;4.30;99.90;;;;;;5081337;28;20508;-60
2021/04/17 02:19:16;;;;;;;15.52;8.32;;;4.30;99.90;;;;;;5063770;28;20041;-59
2021/04/17 02:21:47;;;;;;;15.35;8.82;;;4.20;99.90;;;;;;5072322;28;20033;-59
2021/04/17 02:24:14;;;;;;;22.38;9.45;;;4.20;99.90;;;;;;5070416;28;20055;-59
2021/04/17 02:26:40;;;;;;;16.95;8.65;;;4.30;99.90;;;;;;5071604;28;20482;-59
2021/04/17 02:29:09;;;;;;;15.43;9.20;;;4.40;99.90;;;;;;5068700;28;20540;-59
2021/04/17 02:31:35;;;;;;;19.00;8.68;;;4.40;99.90;;;;;;5070589;28;20032;-58
2021/04/17 02:34:01;;;;;;;15.60;8.85;;;4.40;99.90;;;;;;5067639;28;20085;-59
2021/04/17 02:36:27;;;;;;;11.35;7.80;;;4.40;99.90;;;;;;5072161;28;20104;-59
2021/04/17 02:38:52;;;;;;;13.38;8.27;;;4.40;99.90;;;;;;5071194;28;20492;-57
2021/04/17 02:41:18;;;;;;;14.80;8.48;;;4.50;99.90;;;;;;5069474;28;20024;-59
2021/04/17 02:43:44;;;;;;;14.27;7.88;;;4.50;99.90;;;;;;5068053;28;20551;-58
2021/04/17 02:46:10;;;;;;;14.27;8.90;;;4.40;99.90;;;;;;5072513;28;20123;-60
2021/04/17 02:48:37;;;;;;;19.88;9.63;;;4.30;99.90;;;;;;5069687;28;20107;-56
2021/04/17 02:51:03;;;;;;;21.70;10.27;;;4.20;99.90;;;;;;5066468;28;20024;-58
2021/04/17 02:53:29;;;;;;;17.02;9.25;;;4.10;99.90;;;;;;5062885;28;20025;-56
2021/04/17 02:55:55;;;;;;;17.98;9.70;;;4.00;99.90;;;;;;5067179;28;20082;-58
2021/04/17 02:58:22;;;;;;;18.00;9.18;;;4.10;99.90;;;;;;5063605;28;20029;-59
2021/04/17 03:00:47;;;;;;;19.38;9.23;;;4.10;99.90;;;;;;5064974;28;20068;-58
2021/04/17 03:03:13;;;;;;;19.33;9.52;;;4.00;99.90;;;;;;5067876;28;20044;-58
2021/04/17 03:05:39;;;;;;;22.40;10.10;;;3.90;99.90;;;;;;5070792;28;20033;-58
2021/04/17 03:08:06;;;;;;;16.33;8.43;;;3.90;99.90;;;;;;5065622;28;20020;-59
2021/04/17 03:10:32;;;;;;;18.10;9.35;;;4.00;99.90;;;;;;5064216;28;20028;-59
2021/04/17 03:15:26;;;;;;;17.85;9.73;;;3.90;99.90;;;;;;5008939;28;20034;-52
2021/04/17 03:17:52;;;;;;;17.75;9.50;;;3.80;99.90;;;;;;5013095;28;20029;-50
2021/04/17 03:20:17;;;;;;;17.20;9.77;;;3.70;99.90;;;;;;5019132;28;20037;-51
2021/04/17 03:22:43;;;;;;;14.73;8.55;;;3.70;99.90;;;;;;5023808;28;20075;-51
2021/04/17 03:25:10;;;;;;;15.32;9.45;;;3.80;99.90;;;;;;5011780;28;20137;-50
2021/04/17 03:27:37;;;;;;;20.58;9.93;;;3.70;99.90;;;;;;5016981;28;20029;-51
2021/04/17 03:30:07;;;;;;;14.05;9.07;;;3.80;99.90;;;;;;5018696;28;20029;-50
2021/04/17 03:32:32;;;;;;;16.05;9.30;;;3.70;99.90;;;;;;5010610;28;20076;-50
2021/04/17 03:34:58;;;;;;;17.98;9.25;;;3.70;99.90;;;;;;5011000;28;20034;-51
2021/04/17 03:37:23;;;;;;;15.60;9.82;;;3.70;99.90;;;;;;5011618;28;20422;-51
2021/04/17 03:39:49;;;;;;;21.35;9.82;;;3.60;99.90;;;;;;5016008;28;20030;-52
2021/04/17 03:42:15;;;;;;;22.35;8.90;;;3.30;99.90;;;;;;5016812;28;20442;-51
2021/04/17 03:44:40;;;;;;;21.00;10.48;;;3.30;99.90;;;;;;5008690;28;20492;-51
2021/04/17 03:47:06;;;;;;;28.50;11.00;;;3.20;99.90;;;;;;5010010;28;20021;-52
2021/04/17 03:49:31;;;;;;;18.50;10.13;;;3.10;99.90;;;;;;5016104;28;20034;-50
2021/04/17 03:51:57;;;;;;;20.55;11.00;;;3.00;99.90;;;;;;5014129;28;20080;-54
2021/04/17 03:54:23;;;;;;;21.52;10.57;;;3.00;99.90;;;;;;5014378;28;20038;-53
2021/04/17 03:56:48;;;;;;;23.17;10.20;;;3.00;99.90;;;;;;5012303;28;20030;-50
2021/04/17 03:59:14;;;;;;;17.30;10.35;;;3.00;99.90;;;;;;5013558;28;20065;-51
2021/04/17 04:01:39;;;;;;;23.27;10.68;;;3.10;99.90;;;;;;5013466;28;20030;-52
2021/04/17 04:04:05;;;;;;;19.58;10.15;;;3.20;99.90;;;;;;5012669;28;20041;-52
2021/04/17 04:06:31;;;;;;;16.65;9.90;;;3.20;99.90;;;;;;5009731;28;20130;-50
2021/04/17 04:08:56;;;;;;;23.55;10.23;;;3.20;99.90;;;;;;5014642;28;20026;-50
2021/04/17 04:11:22;;;;;;;15.60;9.35;;;3.20;99.90;;;;;;5014964;28;21019;-51
2021/04/17 04:13:48;;;;;;;17.17;10.75;;;3.20;99.90;;;;;;5009889;28;20365;-54
2021/04/17 04:16:13;;;;;;;16.75;10.77;;;3.10;99.90;;;;;;5020144;28;20060;-54
2021/04/17 04:18:39;;;;;;;18.95;10.43;;;3.00;99.90;;;;;;5018435;28;20450;-52
2021/04/17 04:21:05;;;;;;;23.38;11.35;;;2.80;99.90;;;;;;5020357;28;20415;-52
2021/04/17 04:23:30;;;;;;;23.33;10.73;;;2.80;99.90;;;;;;5019301;28;20026;-50
2021/04/17 04:25:56;;;;;;;22.83;10.85;;;2.80;99.90;;;;;;5014782;28;20076;-50
2021/04/17 04:28:21;;;;;;;23.70;10.43;;;2.90;99.90;;;;;;5015719;28;20407;-54
2021/04/17 04:30:47;;;;;;;18.63;10.73;;;3.00;99.90;;;;;;5021457;28;20369;-52
2021/04/17 04:33:13;;;;;;;21.38;10.05;;;3.10;99.90;;;;;;5011172;28;20060;-53
2021/04/17 04:35:38;;;;;;;14.98;9.32;;;3.10;99.90;;;;;;5009014;28;20481;-50
2021/04/17 04:38:04;;;;;;;19.95;10.30;;;3.10;99.90;;;;;;5020798;28;20033;-52
2021/04/17 04:40:30;;;;;;;16.90;9.77;;;3.10;99.90;;;;;;5008578;28;20038;-54
2021/04/17 04:42:55;;;;;;;20.23;10.15;;;3.00;99.90;;;;;;5012494;28;20139;-50
2021/04/17 04:45:21;;;;;;;22.98;11.32;;;2.80;99.90;;;;;;5009289;28;20030;-50
2021/04/17 04:47:46;;;;;;;22.80;12.48;;;2.70;99.90;;;;;;5010970;28;20064;-51
2021/04/17 04:50:12;;;;;;;22.65;12.40;;;2.60;99.90;;;;;;5018330;28;20029;-50
2021/04/17 04:52:38;;;;;;;21.92;12.43;;;2.50;99.90;;;;;;5010513;28;20029;-51
2021/04/17 04:55:05;;;;;;;26.27;13.32;;;2.40;99.90;;;;;;5005705;28;20029;-50
2021/04/17 04:57:31;;;;;;;25.75;12.95;;;2.40;99.90;;;;;;5015448;28;20037;-50
2021/04/17 04:59:56;;;;;;;22.48;12.73;;;2.40;99.90;;;;;;5014899;28;20026;-52
2021/04/17 05:02:22;;;;;;;24.15;11.85;;;2.40;99.90;;;;;;5009516;28;20428;-52
2021/04/17 05:04:47;;;;;;;28.67;12.73;;;2.40;99.90;;;;;;5016597;28;20073;-52
2021/04/17 05:07:13;;;;;;;26.23;13.15;;;2.40;99.90;;;;;;5008968;28;20026;-50
2021/04/17 05:09:39;;;;;;;28.92;14.13;;;2.40;99.90;;;;;;5011648;28;20018;-50
2021/04/17 05:12:05;;;;;;;26.05;12.73;;;2.40;99.90;;;;;;5018120;28;20034;-50
2021/04/17 05:14:31;;;;;;;21.17;12.07;;;2.40;99.90;;;;;;5007676;28;20042;-51
2021/04/17 05:16:57;;;;;;;20.65;11.52;;;2.50;99.90;;;;;;5011314;28;20026;-52
2021/04/17 05:19:22;;;;;;;21.27;11.40;;;2.50;99.90;;;;;;5019727;28;20025;-50
2021/04/17 05:21:48;;;;;;;25.65;12.15;;;2.60;99.90;;;;;;5011719;28;20062;-50
2021/04/17 05:24:13;;;;;;;26.85;11.30;;;2.70;99.90;;;;;;5015301;28;20034;-54
2021/04/17 05:26:39;;;;;;;17.80;9.85;;;2.90;99.90;;;;;;5011361;28;20026;-54
2021/04/17 05:29:05;;;;;;;22.08;10.35;;;3.10;99.90;;;;;;5013852;28;20056;-51
2021/04/17 05:31:31;;;;;;;24.38;10.65;;;3.20;99.90;;;;;;5013684;28;20117;-51
2021/04/17 05:33:57;;;;;;;14.93;8.80;;;3.40;99.90;;;;;;5002118;28;20125;-51
2021/04/17 05:36:23;;;;;;;19.55;9.50;;;3.50;99.90;;;;;;5002389;28;20026;-54
2021/04/17 05:38:52;;;;;;;18.77;9.45;;;3.60;99.90;;;;;;5013233;28;20476;-53
2021/04/17 05:41:17;;;;;;;17.40;9.30;;;3.70;99.90;;;;;;5015002;28;20400;-53
2021/04/17 05:43:43;;;;;;;21.60;9.77;;;3.80;99.90;;;;;;5015699;28;20018;-53
2021/04/17 05:46:08;;;;;;;17.52;9.05;;;3.80;99.90;;;;;;5008123;28;20026;-55
2021/04/17 05:48:34;;;;;;;15.18;9.23;;;3.90;99.90;;;;;;5022852;28;20028;-52
2021/04/17 05:50:59;;;;;;;17.80;8.93;;;4.00;99.90;;;;;;5014540;28;20037;-50
2021/04/17 05:53:25;;;;;;;18.13;9.52;;;4.10;99.90;;;;;;5013358;28;20032;-56
2021/04/17 05:55:51;;;;;;;15.27;8.70;;;4.20;99.90;;;;;;5011472;28;20459;-51
2021/04/17 05:58:16;;;;;;;17.58;8.65;;;4.40;99.90;;;;;;5013725;28;20021;-53
2021/04/17 06:00:42;;;;;;;14.10;7.95;;;4.50;99.90;;;;;;5014744;28;20071;-50
2021/04/17 06:03:08;;;;;;;16.70;8.23;;;4.60;99.90;;;;;;5012697;28;20056;-54
2021/04/17 06:05:33;;;;;;;15.48;7.78;;;4.70;99.90;;;;;;5020933;28;20025;-53
2021/04/17 06:07:59;;;;;;;17.48;8.52;;;4.80;99.90;;;;;;5021725;28;20156;-53
2021/04/17 06:10:25;;;;;;;22.55;9.27;;;4.90;99.90;;;;;;5013912;28;20041;-51
2021/04/17 06:12:50;;;;;;;16.20;8.13;;;5.00;99.90;;;;;;5017651;28;20026;-51
2021/04/17 06:15:16;;;;;;;14.60;8.02;;;5.20;99.90;;;;;;5011101;28;20030;-51
2021/04/17 06:17:41;;;;;;;18.17;8.43;;;5.20;99.90;;;;;;5016240;28;20133;-53
2021/04/17 06:20:08;;;;;;;21.60;7.93;;;5.30;99.90;;;;;;5015478;28;20519;-53
2021/04/17 06:22:33;;;;;;;20.63;7.53;;;5.40;99.90;;;;;;5019584;28;20160;-50
2021/04/17 06:24:59;;;;;;;15.27;7.78;;;5.50;99.90;;;;;;5011231;28;20109;-54
2021/04/17 06:27:25;;;;;;;14.00;8.18;;;5.60;99.90;;;;;;5019268;28;20032;-50
2021/04/17 06:29:50;;;;;;;12.30;7.65;;;5.70;99.90;;;;;;5013868;28;20573;-50
2021/04/17 06:32:16;;;;;;;16.17;7.07;;;5.80;99.90;;;;;;5018191;28;20033;-52
2021/04/17 06:34:41;;;;;;;17.67;7.28;;;5.80;99.90;;;;;;5008989;28;20041;-49
2021/04/17 06:37:07;;;;;;;22.75;8.85;;;5.90;99.90;;;;;;5020102;28;20107;-50
2021/04/17 06:39:33;;;;;;;19.30;7.82;;;6.00;99.90;;;;;;5015733;28;20029;-50
2021/04/17 06:42:01;;;;;;;19.42;7.38;;;6.10;99.90;;;;;;5013708;28;20029;-50
2021/04/17 06:44:28;;;;;;;13.40;7.68;;;6.20;99.90;;;;;;5023402;28;20025;-49
2021/04/17 06:46:54;;;;;;;16.65;6.60;;;6.30;99.90;;;;;;5014331;28;20026;-49
2021/04/17 06:49:21;;;;;;;12.80;7.25;;;6.40;99.90;;;;;;5014718;28;20041;-51
2021/04/17 06:51:48;;;;;;;17.20;7.55;;;6.50;99.90;;;;;;5023288;28;20033;-52
2021/04/17 06:54:22;;;;;;;17.30;7.57;;;6.60;99.90;;;;;;5018129;28;20026;-51
2021/04/17 06:56:51;;;;;;;15.52;7.45;;;6.60;99.90;;;;;;5010808;28;20108;-52
2021/04/17 06:59:17;;;;;;;17.30;8.75;;;6.70;99.90;;;;;;5017189;28;20057;-51
2021/04/17 07:01:43;;;;;;;14.73;7.47;;;6.80;99.90;;;;;;5013368;28;20620;-49
2021/04/17 07:04:09;;;;;;;16.75;7.00;;;6.80;99.90;;;;;;5020815;28;20435;-52
2021/04/17 07:06:35;;;;;;;11.68;6.68;;;6.90;99.90;;;;;;5012302;28;20050;-50
2021/04/17 07:09:02;;;;;;;14.57;6.38;;;6.90;99.90;;;;;;5016579;28;20045;-52
2021/04/17 07:11:27;;;;;;;21.45;6.45;;;7.00;99.90;;;;;;5017485;28;20026;-50
2021/04/17 07:14:13;;;;;;;14.73;6.63;;;7.00;99.90;;;;;;5013731;28;20389;-52
2021/04/17 07:16:55;;;;;;;12.90;6.68;;;7.10;99.90;;;;;;5013732;28;20480;-53
2021/04/17 07:19:23;;;;;;;21.08;7.30;;;7.20;99.90;;;;;;5019141;28;20113;-49
2021/04/17 07:21:49;;;;;;;11.95;6.45;;;7.30;99.90;;;;;;5024997;28;20034;-51
2021/04/17 07:24:25;;;;;;;10.57;6.22;;;7.30;99.90;;;;;;5014353;28;20491;-53
2021/04/17 07:26:51;;;;;;;19.00;6.15;;;7.50;99.90;;;;;;5015671;28;20045;-51
2021/04/17 07:29:17;;;;;;;20.75;7.93;;;7.50;99.90;;;;;;4997453;28;20029;-55
2021/04/17 07:31:55;;;;;;;18.83;7.32;;;7.60;99.90;;;;;;5016118;28;20091;-49
2021/04/17 07:34:23;;;;;;;13.85;6.18;;;7.70;99.90;;;;;;5012565;28;20053;-53
2021/04/17 07:36:54;;;;;;;16.40;5.63;;;7.80;99.90;;;;;;5017295;28;20026;-50
2021/04/17 07:39:30;;;;;;;13.23;5.50;;;7.90;99.90;;;;;;5013836;28;20388;-53
2021/04/17 07:42:05;;;;;;;13.38;5.75;;;8.00;99.90;;;;;;5014551;28;20615;-52
2021/04/17 07:44:34;;;;;;;14.75;5.55;;;8.10;99.90;;;;;;5008782;28;20181;-52
2021/04/17 07:47:00;;;;;;;16.65;5.47;;;8.20;99.90;;;;;;5016991;28;20034;-51
2021/04/17 07:49:26;;;;;;;12.35;5.63;;;8.20;99.90;;;;;;5015904;28;20156;-49
2021/04/17 07:52:09;;;;;;;12.00;5.40;;;8.30;99.90;;;;;;5012969;28;20077;-53
2021/04/17 07:54:34;;;;;;;9.43;4.80;;;8.30;99.90;;;;;;5012029;28;20403;-51
2021/04/17 07:57:05;;;;;;;8.90;4.55;;;8.40;99.90;;;;;;5012700;28;20056;-50
2021/04/17 07:59:31;;;;;;;11.15;5.07;;;8.50;99.90;;;;;;5015874;28;20037;-53
2021/04/17 08:01:58;;;;;;;11.10;4.38;;;8.70;99.90;;;;;;5010373;28;20516;-53
2021/04/17 08:04:26;;;;;;;8.45;4.05;;;8.80;99.90;;;;;;5014397;28;20069;-55
2021/04/17 08:06:54;;;;;;;10.18;4.65;;;8.90;99.90;;;;;;5016816;28;20097;-55
2021/04/17 08:09:22;;;;;;;11.93;5.43;;;9.00;99.90;;;;;;5018638;28;20405;-52
2021/04/17 08:11:53;;;;;;;7.63;4.40;;;9.10;99.90;;;;;;5012505;28;20547;-55
2021/04/17 08:14:22;;;;;;;18.02;5.95;;;9.10;99.90;;;;;;5012812;28;20085;-53
2021/04/17 08:16:49;;;;;;;11.07;4.43;;;9.20;99.90;;;;;;5011387;28;20398;-53
2021/04/17 08:19:16;;;;;;;10.52;5.10;;;9.20;99.90;;;;;;5011445;28;20026;-55
2021/04/17 08:21:42;;;;;;;9.57;4.50;;;9.30;99.90;;;;;;5009500;28;20034;-55
2021/04/17 08:24:10;;;;;;;11.20;3.55;;;9.30;99.90;;;;;;5009587;28;20396;-54
2021/04/17 08:26:36;;;;;;;7.63;3.83;;;9.40;99.90;;;;;;5013028;28;20018;-56
2021/04/17 08:29:03;;;;;;;7.40;3.78;;;9.50;99.90;;;;;;5007466;28;20076;-54
2021/04/17 08:31:32;;;;;;;10.20;4.50;;;9.60;99.90;;;;;;4999691;28;20033;-52
2021/04/17 08:34:17;;;;;;;9.50;4.05;;;9.50;99.90;;;;;;5004685;28;20033;-52
2021/04/17 08:36:46;;;;;;;6.13;3.58;;;9.50;99.90;;;;;;5004271;28;20047;-50
2021/04/17 08:39:38;;;;;;;7.97;3.83;;;9.60;99.90;;;;;;5007260;28;20037;-53
2021/04/17 08:42:06;;;;;;;8.63;4.28;;;9.70;99.90;;;;;;5011560;28;20136;-53
2021/04/17 08:44:38;;;;;;;5.60;2.95;;;9.60;99.90;;;;;;5008053;28;20060;-52
2021/04/17 08:47:06;;;;;;;11.75;3.60;;;9.70;99.90;;;;;;5011995;28;20030;-50
2021/04/17 08:49:38;;;;;;;8.48;3.58;;;9.80;99.90;;;;;;5010063;28;20037;-52
2021/04/17 08:52:21;;;;;;;8.13;3.85;;;9.80;99.90;;;;;;5009006;28;20029;-51
2021/04/17 08:55:11;;;;;;;9.07;3.70;;;10.00;99.90;;;;;;5008533;28;20414;-50
2021/04/17 08:57:37;;;;;;;6.97;3.58;;;10.10;99.90;;;;;;4998856;28;20030;-51
2021/04/17 09:00:06;;;;;;;9.60;3.65;;;10.20;99.90;;;;;;5008950;28;20083;-50
2021/04/17 09:02:47;;;;;;;6.65;3.30;;;10.20;99.90;;;;;;5012369;28;20379;-50
2021/04/17 09:05:16;;;;;;;6.75;3.78;;;10.20;99.90;;;;;;5016381;28;20022;-52
2021/04/17 09:07:47;;;;;;;10.75;4.07;;;10.20;99.90;;;;;;5013542;28;20026;-53
2021/04/17 09:10:22;;;;;;;9.65;3.85;;;10.20;99.90;;;;;;5019226;28;20038;-54
2021/04/17 09:13:07;;;;;;;14.60;4.32;;;10.10;99.90;;;;;;5007019;28;20057;-50
2021/04/17 09:15:56;;;;;;;11.00;5.65;;;10.10;99.90;;;;;;5017704;28;20085;-53
2021/04/17 09:18:36;;;;;;;10.65;4.85;;;10.10;99.90;;;;;;5013544;28;20064;-52
2021/04/17 09:21:22;;;;;;;11.80;5.00;;;10.40;99.90;;;;;;5009140;28;20037;-53
2021/04/17 09:23:50;;;;;;;13.20;4.95;;;10.70;99.90;;;;;;5011741;28;20526;-53
2021/04/17 09:26:32;;;;;;;18.45;4.97;;;10.80;99.90;;;;;;5013317;28;20945;-51
2021/04/17 09:28:59;;;;;;;13.77;5.32;;;11.00;99.90;;;;;;5011828;28;20034;-55
2021/04/17 09:31:26;;;;;;;12.52;4.20;;;11.20;99.90;;;;;;5014476;28;20039;-54
2021/04/17 09:34:19;;;;;;;12.50;4.43;;;11.30;99.90;;;;;;5012231;28;20064;-50
2021/04/17 09:36:49;;;;;;;12.57;4.40;;;11.40;99.90;;;;;;5009796;28;20062;-53
2021/04/17 09:39:31;;;;;;;12.70;5.53;;;11.40;99.90;;;;;;5013119;28;20527;-51
2021/04/17 09:42:04;;;;;;;9.50;3.90;;;11.60;99.90;;;;;;5013291;28;20033;-53
2021/04/17 09:44:49;;;;;;;14.80;4.68;;;11.70;99.90;;;;;;5012315;28;20029;-49
2021/04/17 09:47:16;;;;;;;9.98;4.03;;;12.00;99.90;;;;;;5013621;28;20052;-54
2021/04/17 09:49:46;;;;;;;6.68;4.20;;;12.00;99.90;;;;;;5011002;28;20526;-52
2021/04/17 09:52:18;;;;;;;6.72;3.95;;;12.00;99.90;;;;;;5018897;28;20553;-54
2021/04/17 09:54:45;;;;;;;12.55;4.88;;;12.00;99.90;;;;;;5013906;28;20099;-51
2021/04/17 09:57:11;;;;;;;7.10;3.70;;;11.90;99.90;;;;;;5011756;28;20030;-52
2021/04/17 09:59:37;;;;;;;14.32;4.97;;;11.80;99.90;;;;;;4999107;28;20516;-55
2021/04/17 10:02:04;;;;;;;8.85;3.55;;;11.80;99.90;;;;;;5013259;28;20132;-50
2021/04/17 10:04:58;;;;;;;14.90;4.40;;;11.90;99.90;;;;;;4995960;28;20018;-54
2021/04/17 10:07:25;;;;;;;8.23;4.00;;;11.80;99.90;;;;;;5012769;28;20060;-51
2021/04/17 10:10:04;;;;;;;12.95;4.75;;;11.70;99.90;;;;;;5013841;28;20021;-53
2021/04/17 10:12:29;;;;;;;14.00;5.38;;;11.70;99.90;;;;;;5004655;28;20041;-55
2021/04/17 10:15:23;;;;;;;13.32;4.43;;;11.70;99.90;;;;;;5010080;28;20643;-54
2021/04/17 10:17:58;;;;;;;7.68;4.60;;;12.00;99.90;;;;;;5002661;28;20124;-56
2021/04/17 10:20:25;;;;;;;7.97;3.70;;;12.20;99.90;;;;;;5006682;28;20026;-53
2021/04/17 10:22:54;;;;;;;10.95;4.88;;;12.30;99.90;;;;;;5012311;28;20025;-54
2021/04/17 10:25:33;;;;;;;14.40;4.45;;;12.50;99.90;;;;;;5012649;28;20365;-54
2021/04/17 10:28:22;;;;;;;13.80;4.35;;;12.50;99.90;;;;;;5013362;28;20025;-54
2021/04/17 10:30:50;;;;;;;8.20;4.15;;;12.60;99.90;;;;;;4978302;28;20049;-52
2021/04/17 10:33:22;;;;;;;12.23;3.67;;;12.50;99.90;;;;;;5009763;28;20032;-51
2021/04/17 10:35:50;;;;;;;8.75;4.07;;;12.60;99.90;;;;;;5007760;28;20088;-54
2021/04/17 10:38:39;;;;;;;12.73;3.90;;;12.80;99.90;;;;;;5009891;28;20496;-54
2021/04/17 10:41:05;;;;;;;11.70;3.75;;;13.20;99.90;;;;;;5014255;28;20034;-50
2021/04/17 10:43:31;;;;;;;6.70;3.55;;;12.80;99.90;;;;;;5011168;28;20021;-54
2021/04/17 10:46:00;;;;;;;7.85;3.60;;;12.80;99.90;;;;;;5019459;28;20026;-54
2021/04/17 10:48:27;;;;;;;8.52;4.28;;;12.90;99.90;;;;;;5011125;28;20025;-54
2021/04/17 10:51:09;;;;;;;8.65;3.63;;;12.90;99.90;;;;;;5012600;28;20030;-51
2021/04/17 10:53:43;;;;;;;9.68;3.80;;;13.20;99.90;;;;;;5010757;28;20034;-52
2021/04/17 10:56:14;;;;;;;9.50;4.05;;;13.70;99.90;;;;;;5010991;28;20820;-53
2021/04/17 10:58:42;;;;;;;12.10;3.88;;;13.90;99.50;;;;;;5013000;28;20092;-53
2021/04/17 11:01:12;;;;;;;6.85;3.33;;;13.80;98.00;;;;;;5023440;28;20394;-55
2021/04/17 11:03:42;;;;;;;5.03;3.17;;;13.50;98.90;;;;;;5011291;28;20026;-54
2021/04/17 11:06:23;;;;;;;8.25;3.65;;;13.10;99.30;;;;;;5010410;28;20032;-51
2021/04/17 11:09:06;;;;;;;8.73;4.30;;;13.20;99.70;;;;;;5012782;28;20030;-55
2021/04/17 11:11:33;;;;;;;13.32;4.13;;;13.50;99.00;;;;;;5018701;28;20045;-52
2021/04/17 11:14:00;;;;;;;7.38;4.07;;;13.90;98.60;;;;;;5015768;28;20026;-53
2021/04/17 11:16:46;;;;;;;8.68;3.30;;;13.80;99.00;;;;;;5011790;28;20418;-53
2021/04/17 11:19:28;;;;;;;7.93;3.67;;;13.80;97.80;;;;;;5016016;28;20044;-56
2021/04/17 11:22:11;;;;;;;15.45;4.15;;;14.00;97.30;;;;;;5026800;28;20033;-50
2021/04/17 11:24:39;;;;;;;7.53;3.97;;;13.90;97.10;;;;;;5008153;28;20029;-52
2021/04/17 11:27:05;;;;;;;10.77;3.42;;;13.80;97.10;;;;;;4990713;28;20388;-54
2021/04/17 11:29:30;;;;;;;7.53;4.10;;;13.70;97.30;;;;;;5014080;28;20024;-53
2021/04/17 11:31:56;;;;;;;9.20;3.38;;;13.60;96.70;;;;;;5024125;28;20487;-50
2021/04/17 11:34:22;;;;;;;5.65;3.53;;;13.60;97.50;;;;;;4993297;28;20037;-55
2021/04/17 11:36:48;;;;;;;9.73;3.58;;;13.40;97.20;;;;;;5018719;28;20022;-54
2021/04/17 11:39:15;;;;;;;7.78;3.58;;;13.30;97.40;;;;;;5013411;28;20069;-53
2021/04/17 11:41:40;;;;;;;8.57;3.45;;;13.20;98.00;;;;;;5026447;28;20030;-53
2021/04/17 11:44:06;;;;;;;9.55;3.53;;;13.50;97.40;;;;;;5016728;28;20072;-54
2021/04/17 11:46:34;;;;;;;6.60;3.63;;;13.90;97.80;;;;;;5014527;28;20040;-50
2021/04/17 11:49:00;;;;;;;12.43;3.88;;;14.40;97.30;;;;;;4994907;28;20029;-50
2021/04/17 11:51:25;;;;;;;8.07;3.72;;;14.60;96.50;;;;;;5007662;28;20029;-51
2021/04/17 11:53:51;;;;;;;9.57;4.28;;;14.90;96.00;;;;;;5008413;28;20454;-56
2021/04/17 11:56:16;;;;;;;14.40;3.75;;;15.00;95.00;;;;;;4987965;28;20026;-56
2021/04/17 11:58:42;;;;;;;12.43;4.30;;;14.80;95.60;;;;;;5017107;28;20037;-54
2021/04/17 12:01:08;;;;;;;8.48;3.83;;;14.60;95.40;;;;;;5011839;28;20457;-57
2021/04/17 12:03:34;;;;;;;9.38;4.15;;;14.20;95.00;;;;;;5013299;28;20026;-52
2021/04/17 12:06:00;;;;;;;7.90;3.40;;;13.70;95.80;;;;;;5015091;28;20124;-53
2021/04/17 12:08:25;;;;;;;5.97;3.78;;;13.60;95.70;;;;;;5016624;28;20022;-55
2021/04/17 12:10:51;;;;;;;9.10;3.78;;;13.70;96.30;;;;;;5014829;28;20051;-53
2021/04/17 12:13:18;;;;;;;12.02;3.95;;;13.80;96.10;;;;;;4995188;28;20323;-55
2021/04/17 12:15:46;;;;;;;8.48;3.42;;;13.90;96.00;;;;;;5015576;28;20113;-51
2021/04/17 12:18:13;;;;;;;19.27;3.97;;;14.00;96.00;;;;;;5013001;28;20038;-55
2021/04/17 12:20:39;;;;;;;12.02;3.40;;;13.90;95.30;;;;;;4996217;28;20034;-54
2021/04/17 12:23:05;;;;;;;10.82;3.50;;;13.70;95.50;;;;;;5013556;28;20036;-55
2021/04/17 12:25:30;;;;;;;6.10;3.13;;;13.60;95.70;;;;;;5013375;28;20030;-55
2021/04/17 12:27:56;;;;;;;9.40;4.05;;;13.70;95.70;;;;;;5018800;28;20025;-56
2021/04/17 12:30:23;;;;;;;9.05;4.25;;;13.60;95.50;;;;;;4991646;28;20053;-55
2021/04/17 12:32:48;;;;;;;8.52;3.75;;;13.50;95.90;;;;;;5003293;28;20510;-53
2021/04/17 12:35:15;;;;;;;7.15;4.00;;;13.50;96.50;;;;;;4996628;28;20033;-51
2021/04/17 12:37:41;;;;;;;8.25;3.60;;;13.60;96.80;;;;;;5015954;28;20022;-53
2021/04/17 12:40:08;;;;;;;9.10;3.97;;;13.70;96.60;;;;;;5007489;28;20030;-51
2021/04/17 12:42:33;;;;;;;10.70;4.07;;;13.80;96.50;;;;;;5012760;28;20432;-52
2021/04/17 12:44:59;;;;;;;9.18;4.32;;;13.70;96.20;;;;;;5022002;28;20080;-55
2021/04/17 12:47:25;;;;;;;12.35;5.53;;;13.40;96.00;;;;;;5004300;28;20053;-52
2021/04/17 12:49:50;;;;;;;11.10;4.07;;;13.30;97.60;;;;;;5009852;28;20100;-53
2021/04/17 12:52:16;;;;;;;8.50;3.92;;;13.40;96.60;;;;;;5010875;28;20086;-53
2021/04/17 12:54:41;;;;;;;9.57;4.72;;;13.30;97.50;;;;;;5014029;28;20045;-56